createdAt,value
2016-12-31T00:00:08.836Z,99.99
2016-12-31T00:01:20.227Z,99.99
2016-12-31T00:02:31.680Z,99.99
2016-12-31T00:03:43.086Z,99.99
2016-12-31T00:04:54.486Z,99.99
2016-12-31T00:06:05.882Z,99.99
2016-12-31T00:07:17.275Z,99.99
2016-12-31T00:08:28.731Z,98.52
2016-12-31T00:09:40.132Z,97.58
2016-12-31T00:10:51.529Z,96.54
2016-12-31T00:12:02.930Z,96.63
2016-12-31T00:13:14.328Z,97.25
2016-12-31T00:14:25.770Z,97.53
2016-12-31T00:15:37.177Z,97.44
2016-12-31T00:16:48.601Z,96.87
2016-12-31T00:18:00.001Z,97.15
2016-12-31T00:19:11.403Z,95.92
2016-12-31T00:20:23.056Z,95.36
2016-12-31T00:21:34.452Z,96.49
2016-12-31T00:22:45.860Z,97.34
2016-12-31T00:23:57.256Z,98
2016-12-31T00:25:08.651Z,96.68
2016-12-31T00:26:20.104Z,95.45
2016-12-31T00:27:31.701Z,96.11
2016-12-31T00:28:43.100Z,95.92
2016-12-31T00:29:54.493Z,97.15
2016-12-31T00:31:05.892Z,96.87
2016-12-31T00:32:17.345Z,97.34
2016-12-31T00:33:28.749Z,96.4
2016-12-31T00:34:40.155Z,96.49
2016-12-31T00:35:51.558Z,96.3
2016-12-31T00:37:02.966Z,97.81
2016-12-31T00:38:14.416Z,97.72
2016-12-31T00:39:26.015Z,98.19
2016-12-31T00:40:37.414Z,98.85
2016-12-31T00:41:48.810Z,98.24
2016-12-31T00:43:00.211Z,98.19
2016-12-31T00:44:11.760Z,98.24
2016-12-31T00:45:23.155Z,99.65
2016-12-31T00:46:34.553Z,98.8
2016-12-31T00:47:45.951Z,99.99
2016-12-31T00:48:57.344Z,99.65
2016-12-31T00:50:08.781Z,99.65
2016-12-31T00:51:20.176Z,98.33
2016-12-31T00:52:31.581Z,99.99
2016-12-31T00:53:42.981Z,99.99
2016-12-31T00:54:54.387Z,99.99
2016-12-31T00:56:05.938Z,99.84
2016-12-31T00:57:17.339Z,99.99
2016-12-31T00:58:28.750Z,99.99
2016-12-31T00:59:40.142Z,99.99
2016-12-31T01:00:51.538Z,99.99
2016-12-31T01:02:03.390Z,99.08
2016-12-31T01:03:14.784Z,99.84
2016-12-31T01:04:26.182Z,99.27
2016-12-31T01:05:37.589Z,99.18
2016-12-31T01:06:48.987Z,98.8
2016-12-31T01:08:00.467Z,99.65
2016-12-31T01:09:12.062Z,99.99
2016-12-31T01:10:23.459Z,99.99
2016-12-31T01:11:35.062Z,99.99
2016-12-31T01:12:46.665Z,99.99
2016-12-31T01:13:58.165Z,99.99
2016-12-31T01:15:09.570Z,99.99
2016-12-31T01:16:21.172Z,99.99
2016-12-31T01:17:32.565Z,99.18
2016-12-31T01:18:43.957Z,98.24
2016-12-31T01:19:55.453Z,98.05
2016-12-31T01:21:07.053Z,98.71
2016-12-31T01:22:18.443Z,98.43
2016-12-31T01:23:30.040Z,98.05
2016-12-31T01:24:41.430Z,98.33
2016-12-31T01:25:53.075Z,99.99
2016-12-31T01:27:04.477Z,98.61
2016-12-31T01:28:16.085Z,98.61
2016-12-31T01:29:27.479Z,99.94
2016-12-31T01:30:38.883Z,99.99
2016-12-31T01:31:50.337Z,99.99
2016-12-31T01:33:01.774Z,99.99
2016-12-31T01:34:13.166Z,99.99
2016-12-31T01:35:24.572Z,99.99
2016-12-31T01:36:35.966Z,99.99
2016-12-31T01:37:47.416Z,99.99
2016-12-31T01:38:59.014Z,98.8
2016-12-31T01:40:10.414Z,99.84
2016-12-31T01:41:21.816Z,98.33
2016-12-31T01:42:33.215Z,99.99
2016-12-31T01:43:44.862Z,99.99
2016-12-31T01:44:56.260Z,99.99
2016-12-31T01:46:07.659Z,99.99
2016-12-31T01:47:19.063Z,99.99
2016-12-31T01:48:30.705Z,99.65
2016-12-31T01:49:42.105Z,99.99
2016-12-31T01:50:53.501Z,99.99
2016-12-31T01:52:04.894Z,99.99
2016-12-31T01:53:16.289Z,99.99
2016-12-31T01:54:27.737Z,99.65
2016-12-31T01:55:39.138Z,99.18
2016-12-31T01:56:50.743Z,99.37
2016-12-31T01:58:02.156Z,99.18
2016-12-31T01:59:13.552Z,97.1
2016-12-31T02:00:25.199Z,99.18
2016-12-31T02:01:36.590Z,99.75
2016-12-31T02:02:47.987Z,99.99
2016-12-31T02:03:59.382Z,99.99
2016-12-31T02:05:10.781Z,98.14
2016-12-31T02:06:22.234Z,99.99
2016-12-31T02:07:33.642Z,99.99
2016-12-31T02:08:45.046Z,99.99
2016-12-31T02:09:56.669Z,99.99
2016-12-31T02:11:08.070Z,99.99
2016-12-31T02:12:19.524Z,99.99
2016-12-31T02:13:31.121Z,99.99
2016-12-31T02:14:42.516Z,98.8
2016-12-31T02:15:53.901Z,99.27
2016-12-31T02:17:05.304Z,99.18
2016-12-31T02:18:16.748Z,97.29
2016-12-31T02:19:28.143Z,98.14
2016-12-31T02:20:39.537Z,97.67
2016-12-31T02:21:51.134Z,97.86
2016-12-31T02:23:02.737Z,97.58
2016-12-31T02:24:14.184Z,97.48
2016-12-31T02:25:25.787Z,98.05
2016-12-31T02:26:37.391Z,97.01
2016-12-31T02:27:48.999Z,96.54
2016-12-31T02:29:00.391Z,96.54
2016-12-31T02:30:12.043Z,97.01
2016-12-31T02:31:23.636Z,97.1
2016-12-31T02:32:35.033Z,97.77
2016-12-31T02:33:46.635Z,98.33
2016-12-31T02:34:58.025Z,99.99
2016-12-31T02:36:09.470Z,98.99
2016-12-31T02:37:20.867Z,98.24
2016-12-31T02:38:32.297Z,99.99
2016-12-31T02:39:43.691Z,99.99
2016-12-31T02:40:55.093Z,99.99
2016-12-31T02:42:06.543Z,99.99
2016-12-31T02:43:17.940Z,99.99
2016-12-31T02:44:29.540Z,99.99
2016-12-31T02:45:40.947Z,99.99
2016-12-31T02:46:52.346Z,99.99
2016-12-31T02:48:03.795Z,99.99
2016-12-31T02:49:15.194Z,99.99
2016-12-31T02:50:26.611Z,99.99
2016-12-31T02:51:38.006Z,99.99
2016-12-31T02:52:49.406Z,99.99
2016-12-31T02:54:00.849Z,99.99
2016-12-31T02:55:12.246Z,99.99
2016-12-31T02:56:23.647Z,99.99
2016-12-31T02:57:35.048Z,99.99
2016-12-31T02:58:46.451Z,99.99
2016-12-31T02:59:57.904Z,99.99
2016-12-31T03:01:09.309Z,99.99
2016-12-31T03:02:20.708Z,99.99
2016-12-31T03:03:32.104Z,99.99
2016-12-31T03:04:43.504Z,99.99
2016-12-31T03:05:54.951Z,99.99
2016-12-31T03:07:06.355Z,99.99
2016-12-31T03:08:17.748Z,99.79
2016-12-31T03:09:29.349Z,99.99
2016-12-31T03:10:40.781Z,99.99
2016-12-31T03:11:52.232Z,99.99
2016-12-31T03:13:03.627Z,99.99
2016-12-31T03:14:15.017Z,99.99
2016-12-31T03:15:26.409Z,99.99
2016-12-31T03:16:37.820Z,99.99
2016-12-31T03:17:49.472Z,99.99
2016-12-31T03:19:00.859Z,99.99
2016-12-31T03:20:12.254Z,99.99
2016-12-31T03:21:23.655Z,99.99
2016-12-31T03:22:35.058Z,99.99
2016-12-31T03:23:46.508Z,99.99
2016-12-31T03:24:57.904Z,99.99
2016-12-31T03:26:09.309Z,99.99
2016-12-31T03:27:20.711Z,99.98
2016-12-31T03:28:32.109Z,99.22
2016-12-31T03:29:43.559Z,99.99
2016-12-31T03:30:54.976Z,99.6
2016-12-31T03:32:06.380Z,99.99
2016-12-31T03:33:17.785Z,99.84
2016-12-31T03:34:29.391Z,99.75
2016-12-31T03:35:40.847Z,99.65
2016-12-31T03:36:52.253Z,99.27
2016-12-31T03:38:03.643Z,99.18
2016-12-31T03:39:15.246Z,98.33
2016-12-31T03:40:26.838Z,99.56
2016-12-31T03:41:38.285Z,98.8
2016-12-31T03:42:49.697Z,97.48
2016-12-31T03:44:01.098Z,97.29
2016-12-31T03:45:12.507Z,97.01
2016-12-31T03:46:23.900Z,98.33
2016-12-31T03:47:35.555Z,98.33
2016-12-31T03:48:46.952Z,99.08
2016-12-31T03:49:58.351Z,99.75
2016-12-31T03:51:09.752Z,99.99
2016-12-31T03:52:21.155Z,98.71
2016-12-31T03:53:32.804Z,99.79
2016-12-31T03:54:44.204Z,99.99
2016-12-31T03:55:55.609Z,99.99
2016-12-31T03:57:07.005Z,99.99
2016-12-31T03:58:18.416Z,99.99
2016-12-31T03:59:29.867Z,99.99
2016-12-31T04:00:41.265Z,98.47
2016-12-31T04:01:52.657Z,98
2016-12-31T04:03:04.050Z,98.28
2016-12-31T04:04:15.450Z,97.62
2016-12-31T04:05:26.892Z,98.19
2016-12-31T04:06:38.288Z,97.24
2016-12-31T04:07:49.693Z,97.01
2016-12-31T04:09:01.100Z,97.2
2016-12-31T04:10:12.507Z,97.29
2016-12-31T04:11:23.949Z,96.54
2016-12-31T04:12:35.348Z,96.35
2016-12-31T04:13:46.774Z,96.06
2016-12-31T04:14:58.169Z,96.44
2016-12-31T04:16:09.566Z,96.06
2016-12-31T04:17:21.006Z,95.78
2016-12-31T04:18:32.614Z,95.78
2016-12-31T04:19:44.018Z,95.97
2016-12-31T04:20:55.408Z,95.87
2016-12-31T04:22:06.806Z,95.97
2016-12-31T04:23:18.454Z,95.21
2016-12-31T04:24:29.854Z,94.74
2016-12-31T04:25:41.252Z,95.03
2016-12-31T04:26:52.646Z,95.31
2016-12-31T04:28:04.076Z,94.65
2016-12-31T04:29:15.531Z,94.65
2016-12-31T04:30:26.927Z,94.65
2016-12-31T04:31:38.319Z,94.37
2016-12-31T04:32:49.726Z,94.27
2016-12-31T04:34:01.128Z,94.27
2016-12-31T04:35:12.576Z,94.65
2016-12-31T04:36:23.967Z,94.27
2016-12-31T04:37:35.395Z,94.27
2016-12-31T04:38:46.791Z,94.46
2016-12-31T04:39:58.392Z,94.27
2016-12-31T04:41:10.079Z,94.08
2016-12-31T04:42:21.484Z,94.56
2016-12-31T04:43:32.885Z,94.46
2016-12-31T04:44:44.489Z,94.37
2016-12-31T04:45:55.884Z,94.65
2016-12-31T04:47:07.343Z,94.37
2016-12-31T04:48:18.752Z,94.37
2016-12-31T04:49:30.172Z,94.37
2016-12-31T04:50:41.574Z,94.56
2016-12-31T04:51:52.970Z,94.46
2016-12-31T04:53:04.418Z,94.27
2016-12-31T04:54:15.813Z,94.93
2016-12-31T04:55:27.218Z,95.03
2016-12-31T04:56:38.617Z,94.93
2016-12-31T04:57:50.019Z,94.65
2016-12-31T04:59:01.480Z,94.74
2016-12-31T05:00:12.884Z,94.74
2016-12-31T05:01:24.283Z,95.5
2016-12-31T05:02:35.678Z,95.4
2016-12-31T05:03:47.070Z,95.31
2016-12-31T05:04:58.523Z,95.03
2016-12-31T05:06:09.935Z,95.78
2016-12-31T05:07:21.341Z,96.16
2016-12-31T05:08:32.738Z,96.63
2016-12-31T05:09:44.138Z,97.86
2016-12-31T05:10:55.612Z,98.24
2016-12-31T05:12:07.019Z,98.05
2016-12-31T05:13:18.424Z,98.05
2016-12-31T05:14:29.820Z,96.35
2016-12-31T05:15:41.218Z,98.14
2016-12-31T05:16:52.671Z,98.8
2016-12-31T05:18:04.269Z,99.94
2016-12-31T05:19:15.667Z,99.84
2016-12-31T05:20:27.083Z,97.77
2016-12-31T05:21:38.484Z,97.77
2016-12-31T05:22:49.928Z,97.67
2016-12-31T05:24:01.326Z,97.2
2016-12-31T05:25:12.925Z,96.54
2016-12-31T05:26:24.326Z,97.77
2016-12-31T05:27:35.925Z,98.43
2016-12-31T05:28:47.379Z,98.05
2016-12-31T05:29:58.782Z,97.29
2016-12-31T05:31:10.181Z,96.16
2016-12-31T05:32:21.575Z,95.31
2016-12-31T05:33:33.179Z,95.4
2016-12-31T05:34:44.646Z,95.68
2016-12-31T05:35:56.042Z,95.5
2016-12-31T05:37:07.642Z,95.59
2016-12-31T05:38:19.250Z,95.68
2016-12-31T05:39:30.853Z,95.5
2016-12-31T05:40:42.306Z,96.44
2016-12-31T05:41:53.908Z,97.01
2016-12-31T05:43:05.307Z,96.35
2016-12-31T05:44:16.722Z,96.73
2016-12-31T05:45:28.124Z,97.2
2016-12-31T05:46:39.581Z,97.86
2016-12-31T05:47:51.180Z,97.15
2016-12-31T05:49:02.578Z,98.24
2016-12-31T05:50:13.974Z,96.96
2016-12-31T05:51:25.370Z,97.24
2016-12-31T05:52:36.819Z,97.96
2016-12-31T05:53:48.223Z,96.77
2016-12-31T05:54:59.622Z,97.15
2016-12-31T05:56:11.218Z,98.61
2016-12-31T05:57:22.618Z,99.22
2016-12-31T05:58:34.067Z,99.13
2016-12-31T05:59:45.673Z,98.38
2016-12-31T06:00:57.074Z,98.38
2016-12-31T06:02:08.675Z,98.19
2016-12-31T06:03:20.074Z,98
2016-12-31T06:04:31.520Z,97.81
2016-12-31T06:05:42.926Z,97.24
2016-12-31T06:06:54.318Z,97.72
2016-12-31T06:08:05.717Z,98
2016-12-31T06:09:17.108Z,97.34
2016-12-31T06:10:28.552Z,97.53
2016-12-31T06:11:39.950Z,96.77
2016-12-31T06:12:51.347Z,95.78
2016-12-31T06:14:02.746Z,96.73
2016-12-31T06:15:14.143Z,96.06
2016-12-31T06:16:25.587Z,95.5
2016-12-31T06:17:36.981Z,95.97
2016-12-31T06:18:48.380Z,95.31
2016-12-31T06:19:59.778Z,94.74
2016-12-31T06:21:11.175Z,95.12
2016-12-31T06:22:22.617Z,94.46
2016-12-31T06:23:34.021Z,94.27
2016-12-31T06:24:45.420Z,94.18
2016-12-31T06:25:56.816Z,94.27
2016-12-31T06:27:08.218Z,93.7
2016-12-31T06:28:19.869Z,93.8
2016-12-31T06:29:31.262Z,94.08
2016-12-31T06:30:42.659Z,93.32
2016-12-31T06:31:54.056Z,93.32
2016-12-31T06:33:05.443Z,93.04
2016-12-31T06:34:17.096Z,93.32
2016-12-31T06:35:28.506Z,93.23
2016-12-31T06:36:39.896Z,92.9
2016-12-31T06:37:51.503Z,92.99
2016-12-31T06:39:02.903Z,92.61
2016-12-31T06:40:14.552Z,92.71
2016-12-31T06:41:26.150Z,92.52
2016-12-31T06:42:37.740Z,92.9
2016-12-31T06:43:49.142Z,92.71
2016-12-31T06:45:00.540Z,92.9
2016-12-31T06:46:11.997Z,92.24
2016-12-31T06:47:23.397Z,92.43
2016-12-31T06:48:34.799Z,92.43
2016-12-31T06:49:46.193Z,92.24
2016-12-31T06:50:57.596Z,92.33
2016-12-31T06:52:09.045Z,92.05
2016-12-31T06:53:20.643Z,92.33
2016-12-31T06:54:32.038Z,92.05
2016-12-31T06:55:43.435Z,92.43
2016-12-31T06:56:55.034Z,92.33
2016-12-31T06:58:06.478Z,91.96
2016-12-31T06:59:18.071Z,92.24
2016-12-31T07:00:29.675Z,92.24
2016-12-31T07:01:41.065Z,91.77
2016-12-31T07:02:52.460Z,91.67
2016-12-31T07:04:03.911Z,91.86
2016-12-31T07:05:15.304Z,91.58
2016-12-31T07:06:26.706Z,91.77
2016-12-31T07:07:38.110Z,91.96
2016-12-31T07:08:49.715Z,91.86
2016-12-31T07:10:01.161Z,91.86
2016-12-31T07:11:12.554Z,91.67
2016-12-31T07:12:24.156Z,92.05
2016-12-31T07:13:35.560Z,91.67
2016-12-31T07:14:46.963Z,91.86
2016-12-31T07:15:58.406Z,91.86
2016-12-31T07:17:09.828Z,91.96
2016-12-31T07:18:21.231Z,91.58
2016-12-31T07:19:32.638Z,91.86
2016-12-31T07:20:44.063Z,91.77
2016-12-31T07:21:55.513Z,91.86
2016-12-31T07:23:06.912Z,91.77
2016-12-31T07:24:18.312Z,91.86
2016-12-31T07:25:29.710Z,91.77
2016-12-31T07:26:41.108Z,91.77
2016-12-31T07:27:52.766Z,91.86
2016-12-31T07:29:04.174Z,91.96
2016-12-31T07:30:15.574Z,91.86
2016-12-31T07:31:26.974Z,91.96
2016-12-31T07:32:38.377Z,91.86
2016-12-31T07:33:49.822Z,91.67
2016-12-31T07:35:01.215Z,91.67
2016-12-31T07:36:13.020Z,92.05
2016-12-31T07:37:24.424Z,91.86
2016-12-31T07:38:35.823Z,91.67
2016-12-31T07:39:47.273Z,91.86
2016-12-31T07:40:58.668Z,91.48
2016-12-31T07:42:10.063Z,91.67
2016-12-31T07:43:21.457Z,91.96
2016-12-31T07:44:33.059Z,91.77
2016-12-31T07:45:44.512Z,91.77
2016-12-31T07:46:55.909Z,91.77
2016-12-31T07:48:07.312Z,91.67
2016-12-31T07:49:18.722Z,91.77
2016-12-31T07:50:30.122Z,91.67
2016-12-31T07:51:41.568Z,91.86
2016-12-31T07:52:53.170Z,91.86
2016-12-31T07:54:04.573Z,91.77
2016-12-31T07:55:15.972Z,91.86
2016-12-31T07:56:27.574Z,91.86
2016-12-31T07:57:39.026Z,91.77
2016-12-31T07:58:50.622Z,91.86
2016-12-31T08:00:02.016Z,91.96
2016-12-31T08:01:13.417Z,91.86
2016-12-31T08:02:25.047Z,91.77
2016-12-31T08:03:36.550Z,91.77
2016-12-31T08:04:47.954Z,91.58
2016-12-31T08:05:59.550Z,91.77
2016-12-31T08:07:10.949Z,91.86
2016-12-31T08:08:22.346Z,91.86
2016-12-31T08:09:33.792Z,91.86
2016-12-31T08:10:45.394Z,91.67
2016-12-31T08:11:56.782Z,91.67
2016-12-31T08:13:08.173Z,91.77
2016-12-31T08:14:19.976Z,92.05
2016-12-31T08:15:31.426Z,91.86
2016-12-31T08:16:42.824Z,91.1
2016-12-31T08:17:54.224Z,91.39
2016-12-31T08:19:05.621Z,91.2
2016-12-31T08:20:17.220Z,91.48
2016-12-31T08:21:28.662Z,91.15
2016-12-31T08:22:40.060Z,91.05
2016-12-31T08:23:51.661Z,91.05
2016-12-31T08:25:03.263Z,90.77
2016-12-31T08:26:14.652Z,90.96
2016-12-31T08:27:26.103Z,91.34
2016-12-31T08:28:37.509Z,90.86
2016-12-31T08:29:48.910Z,90.77
2016-12-31T08:31:00.309Z,90.86
2016-12-31T08:32:11.706Z,91.05
2016-12-31T08:33:23.150Z,90.86
2016-12-31T08:34:34.546Z,90.63
2016-12-31T08:35:46.141Z,90.68
2016-12-31T08:36:57.744Z,90.86
2016-12-31T08:38:09.145Z,90.91
2016-12-31T08:39:20.599Z,91.05
2016-12-31T08:40:31.998Z,90.91
2016-12-31T08:41:43.401Z,90.86
2016-12-31T08:42:54.807Z,91.24
2016-12-31T08:44:06.202Z,90.86
2016-12-31T08:45:17.646Z,91.1
2016-12-31T08:46:29.248Z,90.91
2016-12-31T08:47:40.850Z,91.43
2016-12-31T08:48:52.252Z,91.2
2016-12-31T08:50:03.647Z,91.01
2016-12-31T08:51:15.100Z,91.05
2016-12-31T08:52:26.698Z,90.82
2016-12-31T08:53:38.096Z,90.86
2016-12-31T08:54:49.497Z,90.77
2016-12-31T08:56:00.887Z,90.58
2016-12-31T08:57:12.335Z,90.68
2016-12-31T08:58:23.742Z,90.68
2016-12-31T08:59:35.137Z,90.39
2016-12-31T09:00:46.535Z,90.3
2016-12-31T09:01:57.937Z,90.3
2016-12-31T09:03:09.382Z,90.58
2016-12-31T09:04:20.775Z,90.3
2016-12-31T09:05:32.177Z,90.2
2016-12-31T09:06:43.584Z,90.49
2016-12-31T09:07:54.975Z,90.3
2016-12-31T09:09:06.624Z,90.39
2016-12-31T09:10:18.222Z,90.2
2016-12-31T09:11:29.627Z,90.3
2016-12-31T09:12:41.234Z,90.3
2016-12-31T09:13:52.640Z,90.2
2016-12-31T09:15:04.117Z,90.3
2016-12-31T09:16:15.707Z,90.58
2016-12-31T09:17:27.101Z,90.39
2016-12-31T09:18:38.710Z,90.49
2016-12-31T09:19:50.109Z,90.2
2016-12-31T09:21:01.761Z,90.2
2016-12-31T09:22:13.367Z,90.3
2016-12-31T09:23:24.761Z,90.3
2016-12-31T09:24:36.154Z,90.11
2016-12-31T09:25:47.550Z,90.2
2016-12-31T09:26:58.997Z,90.3
2016-12-31T09:28:10.401Z,90.58
2016-12-31T09:29:21.800Z,90.58
2016-12-31T09:30:33.205Z,90.2
2016-12-31T09:31:44.605Z,90.2
2016-12-31T09:32:56.054Z,90.2
2016-12-31T09:34:07.456Z,90.2
2016-12-31T09:35:18.856Z,90.58
2016-12-31T09:36:30.454Z,90.2
2016-12-31T09:37:41.859Z,90.39
2016-12-31T09:38:53.296Z,90.2
2016-12-31T09:40:04.702Z,90.3
2016-12-31T09:41:16.101Z,90.77
2016-12-31T09:42:27.503Z,90.3
2016-12-31T09:43:38.901Z,90.39
2016-12-31T09:44:50.355Z,90.3
2016-12-31T09:46:01.757Z,90.58
2016-12-31T09:47:13.161Z,90.39
2016-12-31T09:48:24.562Z,90.39
2016-12-31T09:49:36.164Z,90.01
2016-12-31T09:50:47.634Z,90.11
2016-12-31T09:51:59.024Z,90.11
2016-12-31T09:53:10.422Z,90.3
2016-12-31T09:54:21.825Z,90.2
2016-12-31T09:55:33.228Z,90.68
2016-12-31T09:56:44.681Z,91.05
2016-12-31T09:57:56.074Z,90.3
2016-12-31T09:59:07.478Z,90.01
2016-12-31T10:00:19.075Z,90.3
2016-12-31T10:01:30.464Z,90.3
2016-12-31T10:02:42.120Z,90.2
2016-12-31T10:03:53.521Z,90.58
2016-12-31T10:05:04.922Z,90.39
2016-12-31T10:06:16.327Z,90.11
2016-12-31T10:07:27.736Z,91.05
2016-12-31T10:08:39.188Z,91.05
2016-12-31T10:09:50.583Z,90.49
2016-12-31T10:11:01.988Z,90.39
2016-12-31T10:12:13.595Z,90.58
2016-12-31T10:13:24.994Z,90.68
2016-12-31T10:14:36.450Z,90.2
2016-12-31T10:15:47.878Z,90.3
2016-12-31T10:16:59.278Z,90.3
2016-12-31T10:18:10.682Z,90.39
2016-12-31T10:19:22.086Z,90.01
2016-12-31T10:20:33.485Z,90.58
2016-12-31T10:21:44.884Z,90.86
2016-12-31T10:22:56.284Z,90.58
2016-12-31T10:24:07.675Z,90.96
2016-12-31T10:25:19.119Z,90.3
2016-12-31T10:26:30.513Z,90.2
2016-12-31T10:27:41.910Z,90.2
2016-12-31T10:28:53.303Z,90.3
2016-12-31T10:30:04.730Z,90.58
2016-12-31T10:31:16.190Z,90.77
2016-12-31T10:32:27.587Z,90.77
2016-12-31T10:33:39.189Z,90.49
2016-12-31T10:34:50.797Z,90.77
2016-12-31T10:36:02.395Z,90.58
2016-12-31T10:37:13.846Z,90.2
2016-12-31T10:38:25.252Z,90.2
2016-12-31T10:39:36.652Z,90.3
2016-12-31T10:40:48.248Z,90.58
2016-12-31T10:41:59.653Z,90.11
2016-12-31T10:43:11.096Z,90.2
2016-12-31T10:44:22.497Z,90.01
2016-12-31T10:45:34.097Z,90.2
2016-12-31T10:46:45.498Z,90.3
2016-12-31T10:47:56.905Z,90.86
2016-12-31T10:49:08.345Z,90.3
2016-12-31T10:50:19.746Z,90.49
2016-12-31T10:51:31.155Z,90.3
2016-12-31T10:52:42.757Z,90.3
2016-12-31T10:53:54.159Z,90.01
2016-12-31T10:55:05.813Z,90.86
2016-12-31T10:56:17.212Z,90.39
2016-12-31T10:57:28.622Z,90.39
2016-12-31T10:58:40.034Z,90.01
2016-12-31T10:59:51.635Z,90.2
2016-12-31T11:01:03.311Z,90.49
2016-12-31T11:02:14.717Z,90.39
2016-12-31T11:03:26.122Z,90.3
2016-12-31T11:04:37.531Z,90.2
2016-12-31T11:05:48.932Z,90.39
2016-12-31T11:07:00.378Z,90.96
2016-12-31T11:08:11.770Z,90.39
2016-12-31T11:09:23.168Z,91.34
2016-12-31T11:10:34.811Z,90.2
2016-12-31T11:11:46.415Z,90.3
2016-12-31T11:12:57.865Z,90.2
2016-12-31T11:14:09.262Z,90.2
2016-12-31T11:15:20.675Z,90.01
2016-12-31T11:16:32.065Z,90.3
2016-12-31T11:17:43.492Z,90.39
2016-12-31T11:18:54.939Z,90.3
2016-12-31T11:20:06.342Z,90.49
2016-12-31T11:21:17.736Z,90.2
2016-12-31T11:22:29.346Z,90.3
2016-12-31T11:23:40.757Z,90.2
2016-12-31T11:24:52.209Z,90.2
2016-12-31T11:26:03.608Z,90.58
2016-12-31T11:27:15.012Z,90.77
2016-12-31T11:28:26.412Z,90.11
2016-12-31T11:29:37.846Z,90.11
2016-12-31T11:30:49.505Z,90.11
2016-12-31T11:32:00.903Z,90.2
2016-12-31T11:33:12.306Z,90.01
2016-12-31T11:34:23.904Z,90.16
2016-12-31T11:35:35.503Z,90.11
2016-12-31T11:36:46.960Z,89.92
2016-12-31T11:37:58.361Z,90.11
2016-12-31T11:39:09.758Z,90.25
2016-12-31T11:40:21.162Z,89.54
2016-12-31T11:41:32.557Z,90.34
2016-12-31T11:42:44.008Z,89.64
2016-12-31T11:43:55.410Z,89.69
2016-12-31T11:45:06.801Z,89.87
2016-12-31T11:46:18.208Z,89.78
2016-12-31T11:47:29.799Z,89.59
2016-12-31T11:48:41.241Z,89.5
2016-12-31T11:49:52.646Z,90.06
2016-12-31T11:51:04.045Z,89.5
2016-12-31T11:52:15.656Z,89.5
2016-12-31T11:53:27.263Z,90.16
2016-12-31T11:54:38.914Z,90.44
2016-12-31T11:55:50.516Z,90.34
2016-12-31T11:57:02.113Z,90.01
2016-12-31T11:58:13.523Z,89.78
2016-12-31T11:59:25.125Z,89.54
2016-12-31T12:00:36.573Z,89.97
2016-12-31T12:01:47.974Z,89.87
2016-12-31T12:02:59.380Z,89.78
2016-12-31T12:04:10.776Z,89.87
2016-12-31T12:05:22.173Z,89.78
2016-12-31T12:06:33.825Z,89.31
2016-12-31T12:07:45.231Z,89.21
2016-12-31T12:08:56.629Z,89.59
2016-12-31T12:10:08.023Z,90.16
2016-12-31T12:11:19.618Z,89.97
2016-12-31T12:12:31.066Z,89.31
2016-12-31T12:13:42.463Z,89.59
2016-12-31T12:14:53.889Z,89.78
2016-12-31T12:16:05.489Z,90.72
2016-12-31T12:17:16.919Z,90.34
2016-12-31T12:18:28.374Z,89.36
2016-12-31T12:19:39.774Z,90.25
2016-12-31T12:20:51.183Z,90.3
2016-12-31T12:22:02.580Z,89.83
2016-12-31T12:23:13.986Z,90.2
2016-12-31T12:24:25.438Z,90.3
2016-12-31T12:25:36.841Z,90.11
2016-12-31T12:26:48.253Z,89.83
2016-12-31T12:27:59.856Z,89.83
2016-12-31T12:29:11.254Z,89.26
2016-12-31T12:30:22.709Z,89.64
2016-12-31T12:31:34.111Z,90.06
2016-12-31T12:32:45.522Z,90.34
2016-12-31T12:33:57.330Z,90.01
2016-12-31T12:35:08.737Z,89.4
2016-12-31T12:36:20.386Z,89.64
2016-12-31T12:37:31.785Z,89.78
2016-12-31T12:38:43.193Z,89.78
2016-12-31T12:39:54.600Z,90.25
2016-12-31T12:41:05.999Z,89.64
2016-12-31T12:42:17.652Z,90.01
2016-12-31T12:43:29.058Z,90.25
2016-12-31T12:44:40.470Z,90.2
2016-12-31T12:45:51.874Z,90.2
2016-12-31T12:47:03.273Z,89.26
2016-12-31T12:48:14.922Z,89.31
2016-12-31T12:49:26.322Z,89.59
2016-12-31T12:50:37.715Z,90.06
2016-12-31T12:51:49.353Z,89.5
2016-12-31T12:53:00.768Z,89.21
2016-12-31T12:54:12.217Z,89.87
2016-12-31T12:55:23.648Z,89.87
2016-12-31T12:56:35.047Z,89.02
2016-12-31T12:57:46.452Z,89.12
2016-12-31T12:58:57.855Z,89.59
2016-12-31T13:00:09.309Z,89.5
2016-12-31T13:01:20.719Z,89.69
2016-12-31T13:02:32.120Z,89.59
2016-12-31T13:03:43.516Z,89.31
2016-12-31T13:04:55.116Z,89.02
2016-12-31T13:06:06.567Z,89.87
2016-12-31T13:07:17.968Z,89.78
2016-12-31T13:08:29.376Z,89.4
2016-12-31T13:09:40.770Z,90.25
2016-12-31T13:10:52.578Z,89.31
2016-12-31T13:12:04.028Z,89.69
2016-12-31T13:13:15.626Z,89.02
2016-12-31T13:14:27.221Z,89.21
2016-12-31T13:15:38.820Z,89.4
2016-12-31T13:16:50.217Z,89.78
2016-12-31T13:18:01.667Z,89.78
2016-12-31T13:19:13.065Z,89.78
2016-12-31T13:20:24.463Z,89.69
2016-12-31T13:21:36.083Z,89.69
2016-12-31T13:22:47.480Z,89.78
2016-12-31T13:23:58.935Z,90.34
2016-12-31T13:25:10.337Z,89.4
2016-12-31T13:26:21.742Z,88.93
2016-12-31T13:27:33.135Z,89.31
2016-12-31T13:28:44.554Z,90.34
2016-12-31T13:29:56.214Z,89.02
2016-12-31T13:31:07.614Z,89.78
2016-12-31T13:32:19.017Z,90.44
2016-12-31T13:33:30.439Z,89.78
2016-12-31T13:34:41.843Z,89.12
2016-12-31T13:35:53.295Z,90.34
2016-12-31T13:37:04.697Z,89.97
2016-12-31T13:38:16.093Z,90.16
2016-12-31T13:39:27.698Z,89.87
2016-12-31T13:40:39.095Z,89.02
2016-12-31T13:41:50.586Z,89.21
2016-12-31T13:43:01.990Z,89.12
2016-12-31T13:44:13.387Z,89.78
2016-12-31T13:45:24.812Z,89.4
2016-12-31T13:46:36.203Z,89.12
2016-12-31T13:47:47.602Z,89.4
2016-12-31T13:48:59.205Z,89.69
2016-12-31T13:50:10.629Z,90.44
2016-12-31T13:51:22.230Z,89.59
2016-12-31T13:52:33.822Z,89.21
2016-12-31T13:53:45.285Z,88.93
2016-12-31T13:54:56.688Z,89.4
2016-12-31T13:56:08.090Z,89.21
2016-12-31T13:57:19.481Z,89.31
2016-12-31T13:58:30.875Z,90.34
2016-12-31T13:59:42.322Z,90.44
2016-12-31T14:00:53.727Z,90.16
2016-12-31T14:02:05.132Z,89.4
2016-12-31T14:03:16.524Z,90.16
2016-12-31T14:04:27.933Z,90.06
2016-12-31T14:05:39.376Z,90.34
2016-12-31T14:06:50.773Z,89.87
2016-12-31T14:08:02.181Z,90.44
2016-12-31T14:09:13.608Z,89.5
2016-12-31T14:10:25.217Z,89.87
2016-12-31T14:11:36.668Z,89.69
2016-12-31T14:12:48.068Z,90.34
2016-12-31T14:13:59.477Z,89.21
2016-12-31T14:15:10.888Z,90.06
2016-12-31T14:16:22.295Z,89.21
2016-12-31T14:17:33.744Z,89.4
2016-12-31T14:18:45.152Z,89.21
2016-12-31T14:19:56.751Z,90.06
2016-12-31T14:21:08.355Z,89.87
2016-12-31T14:22:19.958Z,89.59
2016-12-31T14:23:31.410Z,90.06
2016-12-31T14:24:42.805Z,90.16
2016-12-31T14:25:54.217Z,90.06
2016-12-31T14:27:05.624Z,89.31
2016-12-31T14:28:17.023Z,89.5
2016-12-31T14:29:28.503Z,89.31
2016-12-31T14:30:39.900Z,89.21
2016-12-31T14:31:51.312Z,89.31
2016-12-31T14:33:02.706Z,90.25
2016-12-31T14:34:14.117Z,90.34
2016-12-31T14:35:25.569Z,90.25
2016-12-31T14:36:36.965Z,90.25
2016-12-31T14:37:48.366Z,90.25
2016-12-31T14:38:59.770Z,90.25
2016-12-31T14:40:11.175Z,89.87
2016-12-31T14:41:22.629Z,89.97
2016-12-31T14:42:34.231Z,89.5
2016-12-31T14:43:45.640Z,88.93
2016-12-31T14:44:57.244Z,89.59
2016-12-31T14:46:08.651Z,88.74
2016-12-31T14:47:20.105Z,88.87
2016-12-31T14:48:31.503Z,89.63
2016-12-31T14:49:42.903Z,88.87
2016-12-31T14:50:54.303Z,89.63
2016-12-31T14:52:05.706Z,90.39
2016-12-31T14:53:17.149Z,90.48
2016-12-31T14:54:28.563Z,89.16
2016-12-31T14:55:39.968Z,90.39
2016-12-31T14:56:51.370Z,90.11
2016-12-31T14:58:02.788Z,88.78
2016-12-31T14:59:14.235Z,88.68
2016-12-31T15:00:25.829Z,89.35
2016-12-31T15:01:37.245Z,92.47
2016-12-31T15:02:48.849Z,91.43
2016-12-31T15:04:00.257Z,89.54
2016-12-31T15:05:11.712Z,89.63
2016-12-31T15:06:23.109Z,90.11
2016-12-31T15:07:34.496Z,90.11
2016-12-31T15:08:46.096Z,92
2016-12-31T15:09:57.498Z,90.58
2016-12-31T15:11:08.960Z,90.39
2016-12-31T15:12:20.356Z,89.35
2016-12-31T15:13:31.755Z,91.91
2016-12-31T15:14:43.170Z,90.39
2016-12-31T15:15:54.570Z,88.97
2016-12-31T15:17:06.016Z,88.59
2016-12-31T15:18:17.412Z,89.63
2016-12-31T15:19:29.011Z,88.87
2016-12-31T15:20:40.413Z,88.87
2016-12-31T15:21:52.020Z,88.68
2016-12-31T15:23:03.473Z,89.16
2016-12-31T15:24:14.879Z,88.87